Time;durP1;ratioP1;P1;durP2;ratioP2;P2;SDS_P1;SDS_P2;PMS_P1;PMS_P2;Temp;Humidity;BMP_temperature;BMP_pressure;BME280_temperature;BME280_humidity;BME280_pressure;Samples;Min_cycle;Max_cycle;Signal;HPM_P1;HPM_P2
2023/09/14 00:01:11;;;;;;;31.03;29.83;;;24.10;90.70;;;;;;5031950;28;20476;-58
2023/09/14 00:03:39;;;;;;;30.80;29.70;;;24.10;90.70;;;;;;5031824;28;20493;-58
2023/09/14 00:06:06;;;;;;;31.40;30.20;;;24.10;90.70;;;;;;5035029;28;20484;-59
2023/09/14 00:08:33;;;;;;;30.53;29.43;;;24.10;90.70;;;;;;5032236;28;20465;-59
2023/09/14 00:11:02;;;;;;;31.83;30.63;;;24.00;90.60;;;;;;5031907;28;20469;-57
2023/09/14 00:13:29;;;;;;;31.47;30.27;;;24.00;90.60;;;;;;5023763;28;21027;-58
2023/09/14 00:15:56;;;;;;;31.13;29.80;;;24.00;90.60;;;;;;5031840;28;20487;-59
2023/09/14 00:18:23;;;;;;;30.70;29.50;;;24.00;90.60;;;;;;5031908;28;20501;-56
2023/09/14 00:20:53;;;;;;;32.60;31.30;;;24.00;90.60;;;;;;5031770;28;20479;-58
2023/09/14 00:23:20;;;;;;;32.93;31.73;;;24.00;90.60;;;;;;5031211;28;20548;-58
2023/09/14 00:25:47;;;;;;;31.30;30.00;;;24.00;90.70;;;;;;5034122;28;20456;-58
2023/09/14 00:28:13;;;;;;;34.53;32.93;;;24.00;90.60;;;;;;5031592;28;20874;-57
2023/09/14 00:30:40;;;;;;;32.03;30.83;;;24.00;90.60;;;;;;5031708;28;20857;-53
2023/09/14 00:33:08;;;;;;;35.13;33.70;;;24.00;90.60;;;;;;5030480;28;20492;-53
2023/09/14 00:35:35;;;;;;;33.60;32.40;;;23.90;90.50;;;;;;5033781;28;20540;-57
2023/09/14 00:38:03;;;;;;;32.30;31.20;;;23.90;90.50;;;;;;5031422;28;20481;-53
2023/09/14 00:40:30;;;;;;;33.10;31.80;;;23.90;90.50;;;;;;5023448;28;20479;-57
2023/09/14 00:42:57;;;;;;;33.60;32.30;;;23.90;90.50;;;;;;5031149;28;20884;-55
2023/09/14 00:45:24;;;;;;;33.70;32.43;;;23.90;90.50;;;;;;5033375;28;20846;-55
2023/09/14 00:47:52;;;;;;;33.03;31.73;;;23.90;90.50;;;;;;5039003;28;20488;-58
2023/09/14 00:50:21;;;;;;;35.83;34.53;;;23.90;90.50;;;;;;5031252;28;20503;-55
2023/09/14 00:52:52;;;;;;;35.67;34.33;;;23.90;90.50;;;;;;5031036;28;20546;-54
2023/09/14 00:55:21;;;;;;;33.10;31.90;;;23.90;90.50;;;;;;5033405;28;20878;-57
2023/09/14 00:57:49;;;;;;;31.67;30.47;;;23.90;90.50;;;;;;5031247;28;20974;-60
2023/09/14 01:00:17;;;;;;;34.53;33.30;;;23.90;90.50;;;;;;5031495;28;20477;-57
2023/09/14 01:02:44;;;;;;;33.03;31.83;;;23.90;90.40;;;;;;5030903;28;20471;-56
2023/09/14 01:05:14;;;;;;;31.27;30.17;;;23.80;90.30;;;;;;5031307;28;20476;-57
2023/09/14 01:07:41;;;;;;;32.03;30.77;;;23.80;90.30;;;;;;5031287;28;20504;-55
2023/09/14 01:10:10;;;;;;;31.60;30.40;;;23.80;90.40;;;;;;5030883;28;20463;-58
2023/09/14 01:12:39;;;;;;;33.37;32.07;;;23.80;90.40;;;;;;5030815;28;20441;-59
2023/09/14 01:15:15;;;;;;;32.50;31.20;;;23.80;90.40;;;;;;5032701;28;20449;-59
2023/09/14 01:17:56;;;;;;;32.43;31.13;;;23.80;90.40;;;;;;5031058;28;20433;-57
2023/09/14 01:20:48;;;;;;;34.60;33.10;;;23.80;90.30;;;;;;5030922;28;20443;-58
2023/09/14 01:23:29;;;;;;;33.70;32.20;;;23.80;90.30;;;;;;5011042;28;20461;-57
2023/09/14 01:26:00;;;;;;;33.07;31.70;;;23.80;90.30;;;;;;5031025;28;20445;-57
2023/09/14 01:28:27;;;;;;;32.60;31.40;;;23.80;90.30;;;;;;5030794;28;20437;-55
2023/09/14 01:30:54;;;;;;;33.50;31.70;;;23.80;90.20;;;;;;5030836;28;20473;-56
2023/09/14 01:33:24;;;;;;;33.63;32.40;;;23.80;90.20;;;;;;5034710;28;20497;-57
2023/09/14 01:35:57;;;;;;;32.10;30.80;;;23.70;90.20;;;;;;5030850;28;20448;-56
2023/09/14 01:38:24;;;;;;;32.40;31.20;;;23.70;90.10;;;;;;5030886;28;20508;-59
2023/09/14 01:40:54;;;;;;;33.03;31.73;;;23.70;90.20;;;;;;5030798;28;20485;-58
2023/09/14 01:43:23;;;;;;;33.60;32.10;;;23.70;90.20;;;;;;5035705;28;20507;-60
2023/09/14 01:45:50;;;;;;;32.77;31.47;;;23.70;90.20;;;;;;5034384;28;20480;-54
2023/09/14 01:48:18;;;;;;;32.53;31.23;;;23.70;90.10;;;;;;5034205;28;20473;-59
2023/09/14 01:50:45;;;;;;;33.00;31.80;;;23.70;90.10;;;;;;5034380;28;20481;-58
2023/09/14 01:53:12;;;;;;;33.70;32.43;;;23.70;90.10;;;;;;5037604;28;20500;-58
2023/09/14 01:55:39;;;;;;;34.70;32.60;;;23.70;90.10;;;;;;5034193;28;20473;-57
2023/09/14 01:58:06;;;;;;;33.57;32.27;;;23.70;90.10;;;;;;5033989;28;20445;-56
2023/09/14 02:00:34;;;;;;;33.10;31.80;;;23.70;90.10;;;;;;5034220;28;20484;-58
2023/09/14 02:03:01;;;;;;;33.30;32.00;;;23.70;90.10;;;;;;5037510;28;20465;-55
2023/09/14 02:05:28;;;;;;;32.23;30.93;;;23.70;90.10;;;;;;5033868;28;20472;-58
2023/09/14 02:07:55;;;;;;;36.13;34.73;;;23.70;90.10;;;;;;5034018;28;20481;-56
2023/09/14 02:10:22;;;;;;;34.83;33.53;;;23.70;90.10;;;;;;5033946;28;20893;-56
2023/09/14 02:12:49;;;;;;;35.27;33.80;;;23.70;90.10;;;;;;5037111;28;20457;-58
2023/09/14 02:15:17;;;;;;;33.30;32.10;;;23.70;90.10;;;;;;5033830;28;20483;-56
2023/09/14 02:17:45;;;;;;;34.30;32.90;;;23.70;90.10;;;;;;5033837;28;20449;-57
2023/09/14 02:20:12;;;;;;;34.67;33.27;;;23.60;90.10;;;;;;5033703;28;20527;-57
2023/09/14 02:22:39;;;;;;;34.37;33.07;;;23.60;90.10;;;;;;5036467;28;20481;-59
2023/09/14 02:25:07;;;;;;;33.07;31.67;;;23.60;90.20;;;;;;5110163;22;20552;-59
2023/09/14 02:27:34;;;;;;;33.87;32.57;;;23.60;90.20;;;;;;5065533;28;20479;-55
2023/09/14 02:30:03;;;;;;;34.37;33.07;;;23.60;90.20;;;;;;5073582;28;20995;-58
2023/09/14 02:32:30;;;;;;;34.00;32.70;;;23.60;90.20;;;;;;5063931;28;20526;-57
2023/09/14 02:34:58;;;;;;;33.30;31.90;;;23.60;90.20;;;;;;5056862;28;20498;-58
2023/09/14 02:37:25;;;;;;;32.20;31.00;;;23.60;90.30;;;;;;5053184;28;20468;-56
2023/09/14 02:39:52;;;;;;;33.20;31.83;;;23.60;90.30;;;;;;5053188;28;20500;-59
2023/09/14 02:42:19;;;;;;;33.90;32.50;;;23.60;90.40;;;;;;5052669;28;20966;-56
2023/09/14 02:44:46;;;;;;;32.17;30.97;;;23.60;90.50;;;;;;5053140;28;20502;-56
2023/09/14 02:47:13;;;;;;;32.20;31.00;;;23.60;90.50;;;;;;5053116;28;20448;-54
2023/09/14 02:49:40;;;;;;;33.20;31.67;;;23.60;90.50;;;;;;5053513;28;21001;-59
2023/09/14 02:52:09;;;;;;;33.03;31.80;;;23.60;90.50;;;;;;5052586;28;20452;-58
2023/09/14 02:54:35;;;;;;;32.97;31.70;;;23.60;90.50;;;;;;5044944;28;20495;-56
2023/09/14 02:57:02;;;;;;;33.63;32.33;;;23.60;90.50;;;;;;5052287;28;20476;-54
2023/09/14 02:59:29;;;;;;;36.07;34.60;;;23.60;90.40;;;;;;5052725;28;20480;-56
2023/09/14 03:01:57;;;;;;;36.57;35.07;;;23.50;90.40;;;;;;5052448;28;20449;-55
2023/09/14 03:04:24;;;;;;;35.97;34.47;;;23.60;90.50;;;;;;5052473;28;20514;-57
2023/09/14 03:06:50;;;;;;;35.67;34.27;;;23.50;90.40;;;;;;5052750;28;20482;-57
2023/09/14 03:09:19;;;;;;;38.43;36.83;;;23.50;90.40;;;;;;5052634;28;20444;-56
2023/09/14 03:11:45;;;;;;;38.53;37.00;;;23.50;90.40;;;;;;5052482;28;20480;-53
2023/09/14 03:14:12;;;;;;;37.30;35.90;;;23.50;90.50;;;;;;5052308;28;20504;-55
2023/09/14 03:16:39;;;;;;;36.93;35.27;;;23.50;90.80;;;;;;5052630;28;20530;-59
2023/09/14 03:19:06;;;;;;;38.33;36.83;;;23.50;90.40;;;;;;5052540;28;20511;-60
2023/09/14 03:21:33;;;;;;;37.70;36.20;;;23.50;90.50;;;;;;5051932;28;20448;-60
2023/09/14 03:24:00;;;;;;;36.57;34.60;;;23.50;90.40;;;;;;5051959;28;20500;-59
2023/09/14 03:26:28;;;;;;;37.00;35.50;;;23.50;90.40;;;;;;5052249;28;20472;-57
2023/09/14 03:28:55;;;;;;;39.03;37.43;;;23.50;90.40;;;;;;5052407;28;20529;-56
2023/09/14 03:31:22;;;;;;;38.33;36.83;;;23.50;90.50;;;;;;5052046;28;20475;-57
2023/09/14 03:33:52;;;;;;;36.47;34.97;;;23.50;90.40;;;;;;5052057;28;20502;-60
2023/09/14 03:36:19;;;;;;;37.50;36.00;;;23.50;90.40;;;;;;5052047;28;20440;-61
2023/09/14 03:38:47;;;;;;;37.73;36.23;;;23.50;90.70;;;;;;5051669;28;20448;-57
2023/09/14 03:41:14;;;;;;;38.63;36.93;;;23.50;90.30;;;;;;5051831;28;20468;-60
2023/09/14 03:43:42;;;;;;;35.20;33.80;;;23.50;90.20;;;;;;5051796;28;20979;-54
2023/09/14 03:46:09;;;;;;;36.87;34.60;;;23.50;90.20;;;;;;5052251;28;20542;-56
2023/09/14 03:48:36;;;;;;;35.53;34.03;;;23.50;90.10;;;;;;5051937;28;20479;-59
2023/09/14 03:51:03;;;;;;;36.80;35.30;;;23.50;90.20;;;;;;5051832;28;20479;-53
2023/09/14 03:53:30;;;;;;;33.97;32.57;;;23.50;90.10;;;;;;5051564;28;20498;-58
2023/09/14 03:55:59;;;;;;;34.17;32.87;;;23.50;90.10;;;;;;5051793;28;20479;-56
2023/09/14 03:58:26;;;;;;;36.43;34.63;;;23.40;90.00;;;;;;5051677;28;20845;-60
2023/09/14 04:00:55;;;;;;;37.90;36.20;;;23.40;90.00;;;;;;5051265;28;20507;-60
2023/09/14 04:03:22;;;;;;;38.60;37.00;;;23.40;90.00;;;;;;5051850;28;20462;-57
2023/09/14 04:05:49;;;;;;;38.27;36.77;;;23.40;90.00;;;;;;5051780;28;20476;-60
2023/09/14 04:08:16;;;;;;;42.00;40.30;;;23.40;89.90;;;;;;5051498;28;20472;-59
2023/09/14 04:10:43;;;;;;;38.67;37.17;;;23.40;89.80;;;;;;5051357;28;20449;-54
2023/09/14 04:13:26;;;;;;;38.97;37.37;;;23.40;89.80;;;;;;5051439;28;20468;-60
2023/09/14 04:15:55;;;;;;;48.47;46.67;;;23.40;89.80;;;;;;5045978;28;20451;-62
2023/09/14 04:18:22;;;;;;;50.17;48.37;;;23.40;90.10;;;;;;5051340;28;20954;-62
2023/09/14 04:20:49;;;;;;;48.13;45.60;;;23.50;91.00;;;;;;5051092;28;20500;-64
2023/09/14 04:23:16;;;;;;;49.10;47.40;;;23.50;90.50;;;;;;5051174;28;21056;-54
2023/09/14 04:25:45;;;;;;;47.63;45.80;;;23.60;90.10;;;;;;5051437;28;20475;-53
2023/09/14 04:28:13;;;;;;;48.97;47.10;;;23.60;90.00;;;;;;5051473;28;20440;-53
2023/09/14 04:30:44;;;;;;;48.70;46.93;;;23.70;89.80;;;;;;5051127;28;20448;-60
2023/09/14 04:33:12;;;;;;;47.37;45.30;;;23.80;89.70;;;;;;5051302;28;20523;-53
2023/09/14 04:35:39;;;;;;;49.87;47.93;;;23.90;90.20;;;;;;5043453;28;20448;-51
2023/09/14 04:38:07;;;;;;;46.10;44.30;;;24.00;89.60;;;;;;5051280;28;20484;-52
2023/09/14 04:40:37;;;;;;;46.87;45.17;;;24.10;89.40;;;;;;5050586;28;20515;-52
2023/09/14 04:43:03;;;;;;;46.23;44.43;;;24.30;88.60;;;;;;5049867;28;20480;-58
2023/09/14 04:45:30;;;;;;;47.80;46.00;;;24.40;88.10;;;;;;5050534;28;20527;-50
2023/09/14 04:47:58;;;;;;;47.80;45.90;;;24.50;87.60;;;;;;5051044;28;20472;-57
2023/09/14 04:50:26;;;;;;;48.23;46.23;;;24.60;87.40;;;;;;5050991;28;20468;-52
2023/09/14 04:52:53;;;;;;;49.00;46.80;;;24.70;87.30;;;;;;5051004;28;20817;-55
2023/09/14 04:55:20;;;;;;;51.10;48.37;;;24.80;87.60;;;;;;5050931;28;20499;-53
2023/09/14 04:57:47;;;;;;;51.57;48.53;;;24.90;88.10;;;;;;5050955;28;20850;-57
2023/09/14 05:00:15;;;;;;;52.33;49.30;;;25.00;88.20;;;;;;5050877;28;20476;-56
2023/09/14 05:02:42;;;;;;;49.80;47.60;;;25.00;90.90;;;;;;5051025;28;20450;-56
2023/09/14 05:05:10;;;;;;;44.57;42.13;;;25.20;91.20;;;;;;5050318;28;20531;-53
2023/09/14 05:07:39;;;;;;;43.77;40.87;;;25.20;91.20;;;;;;5050264;28;20487;-50
2023/09/14 05:10:08;;;;;;;43.00;40.97;;;25.20;90.90;;;;;;5051008;28;20813;-49
2023/09/14 05:12:35;;;;;;;42.93;40.90;;;25.20;90.60;;;;;;5050699;28;20445;-54
2023/09/14 05:15:02;;;;;;;44.37;42.17;;;25.20;90.20;;;;;;5050563;28;20836;-54
2023/09/14 05:17:29;;;;;;;46.47;44.17;;;25.20;90.00;;;;;;5050727;28;20821;-57
2023/09/14 05:19:56;;;;;;;44.23;42.17;;;25.10;89.40;;;;;;5053458;28;20504;-52
2023/09/14 05:22:25;;;;;;;42.77;40.40;;;25.00;89.00;;;;;;5054283;28;20471;-51
2023/09/14 05:24:53;;;;;;;43.37;40.80;;;25.00;88.70;;;;;;5054313;28;20475;-52
2023/09/14 05:27:20;;;;;;;47.03;44.93;;;24.90;88.40;;;;;;5054299;28;20447;-53
2023/09/14 05:29:47;;;;;;;47.20;45.20;;;24.80;88.30;;;;;;5054338;28;20468;-53
2023/09/14 05:32:14;;;;;;;42.83;40.60;;;24.70;88.10;;;;;;5054188;28;20921;-51
2023/09/14 05:34:41;;;;;;;46.47;44.33;;;24.60;87.90;;;;;;5054257;28;20496;-54
2023/09/14 05:37:08;;;;;;;46.47;44.50;;;24.50;87.80;;;;;;5054590;28;20483;-55
2023/09/14 05:39:35;;;;;;;45.47;42.83;;;24.50;87.90;;;;;;5054225;28;20512;-51
2023/09/14 05:42:04;;;;;;;42.90;40.50;;;24.40;87.80;;;;;;5054414;28;20472;-54
2023/09/14 05:44:31;;;;;;;44.93;43.13;;;24.30;87.80;;;;;;5054158;28;20503;-53
2023/09/14 05:46:58;;;;;;;44.33;42.53;;;24.20;87.80;;;;;;5054249;28;20468;-58
2023/09/14 05:49:25;;;;;;;45.07;43.07;;;24.20;87.90;;;;;;5054093;28;20869;-52
2023/09/14 05:51:53;;;;;;;45.50;43.70;;;24.10;87.90;;;;;;5054044;28;20495;-59
2023/09/14 05:54:20;;;;;;;49.57;47.23;;;24.10;88.00;;;;;;5053716;28;20471;-52
2023/09/14 05:56:46;;;;;;;45.90;43.90;;;24.00;88.10;;;;;;5054070;28;20472;-54
2023/09/14 05:59:15;;;;;;;42.80;40.93;;;24.00;88.20;;;;;;5053966;28;20476;-51
2023/09/14 06:01:42;;;;;;;44.00;42.20;;;23.90;88.30;;;;;;5053941;28;20472;-53
2023/09/14 06:04:09;;;;;;;44.80;43.00;;;23.90;88.40;;;;;;5053540;28;20496;-51
2023/09/14 06:06:36;;;;;;;48.60;46.60;;;23.80;88.50;;;;;;5053658;28;20495;-58
2023/09/14 06:09:03;;;;;;;47.00;45.00;;;23.80;88.60;;;;;;5053817;28;20947;-51
2023/09/14 06:11:30;;;;;;;44.60;42.23;;;23.80;88.80;;;;;;5053697;28;20515;-51
2023/09/14 06:13:57;;;;;;;47.50;45.40;;;23.70;88.80;;;;;;5053583;28;20495;-51
2023/09/14 06:16:25;;;;;;;45.97;43.80;;;23.70;88.90;;;;;;5053620;28;20472;-51
2023/09/14 06:18:52;;;;;;;47.83;45.90;;;23.70;89.10;;;;;;5053589;28;20448;-53
2023/09/14 06:21:19;;;;;;;49.27;47.07;;;23.70;89.20;;;;;;5053267;28;20507;-51
2023/09/14 06:23:46;;;;;;;49.80;47.90;;;23.60;89.20;;;;;;5053203;28;20894;-51
2023/09/14 06:26:14;;;;;;;50.43;48.43;;;23.60;89.40;;;;;;5053432;28;20476;-51
2023/09/14 06:28:41;;;;;;;51.13;49.03;;;23.60;89.50;;;;;;5053427;28;20483;-56
2023/09/14 06:31:07;;;;;;;49.63;47.73;;;23.60;89.50;;;;;;5052236;28;20443;-51
2023/09/14 06:33:36;;;;;;;49.60;47.50;;;23.60;89.70;;;;;;5053008;28;20499;-52
2023/09/14 06:36:03;;;;;;;49.07;47.00;;;23.50;89.70;;;;;;5053256;28;20468;-56
2023/09/14 06:38:30;;;;;;;45.90;44.00;;;23.50;89.70;;;;;;5053183;28;20467;-50
2023/09/14 06:40:57;;;;;;;46.93;45.00;;;23.50;89.90;;;;;;5053041;28;20468;-52
2023/09/14 06:43:24;;;;;;;48.90;46.63;;;23.50;90.00;;;;;;5052762;28;20488;-51
2023/09/14 06:45:50;;;;;;;49.00;46.90;;;23.50;90.00;;;;;;5053117;28;20542;-51
2023/09/14 06:48:17;;;;;;;50.10;47.90;;;23.50;90.10;;;;;;5052839;28;20472;-53
2023/09/14 06:50:46;;;;;;;45.03;43.23;;;23.50;90.10;;;;;;5052876;28;20475;-52
2023/09/14 06:53:13;;;;;;;48.07;46.07;;;23.50;90.20;;;;;;5052657;28;20448;-55
2023/09/14 06:55:40;;;;;;;48.07;46.13;;;23.40;90.20;;;;;;5052647;28;20479;-55
2023/09/14 06:58:08;;;;;;;44.90;43.00;;;23.40;90.20;;;;;;5052888;28;20476;-55
2023/09/14 07:00:35;;;;;;;42.90;41.20;;;23.40;90.30;;;;;;5052640;28;20986;-55
2023/09/14 07:03:03;;;;;;;45.90;44.00;;;23.40;90.30;;;;;;5052516;28;20448;-54
2023/09/14 07:05:30;;;;;;;47.73;45.83;;;23.40;90.30;;;;;;5052557;28;20440;-53
2023/09/14 07:07:59;;;;;;;46.50;44.50;;;23.40;90.40;;;;;;5052864;28;20448;-54
2023/09/14 07:10:26;;;;;;;44.77;42.97;;;23.40;90.40;;;;;;5052467;28;20482;-53
2023/09/14 07:12:53;;;;;;;48.33;46.43;;;23.40;90.50;;;;;;5052520;28;20452;-54
2023/09/14 07:15:20;;;;;;;47.00;45.10;;;23.40;90.50;;;;;;5052282;28;20490;-53
2023/09/14 07:17:46;;;;;;;46.60;44.70;;;23.30;90.50;;;;;;5052315;28;20444;-52
2023/09/14 07:20:13;;;;;;;46.80;44.80;;;23.30;90.50;;;;;;5052357;28;20570;-55
2023/09/14 07:22:40;;;;;;;45.87;43.87;;;23.30;90.50;;;;;;5052225;28;20480;-52
2023/09/14 07:25:09;;;;;;;49.23;47.30;;;23.30;90.90;;;;;;5052061;28;20492;-54
2023/09/14 07:27:36;;;;;;;48.50;46.50;;;23.30;90.60;;;;;;5051962;28;20834;-52
2023/09/14 07:30:04;;;;;;;49.43;47.43;;;23.30;90.60;;;;;;5052193;28;20472;-52
2023/09/14 07:32:31;;;;;;;48.60;46.50;;;23.30;90.70;;;;;;5051757;28;20444;-53
2023/09/14 07:35:00;;;;;;;47.60;45.70;;;23.30;90.70;;;;;;5051988;28;20773;-52
2023/09/14 07:37:27;;;;;;;47.47;45.43;;;23.30;90.70;;;;;;5052018;28;20887;-55
2023/09/14 07:39:54;;;;;;;47.80;45.90;;;23.30;90.80;;;;;;5052026;28;20472;-53
2023/09/14 07:42:22;;;;;;;46.73;44.93;;;23.30;90.80;;;;;;5051418;28;20436;-55
2023/09/14 07:44:49;;;;;;;48.63;46.60;;;23.30;90.90;;;;;;5051813;28;20460;-53
2023/09/14 07:47:16;;;;;;;47.93;46.03;;;23.30;90.90;;;;;;5051799;28;20480;-52
2023/09/14 07:49:45;;;;;;;45.93;44.03;;;23.30;90.90;;;;;;5051681;28;21001;-58
2023/09/14 07:52:12;;;;;;;43.90;42.00;;;23.30;91.00;;;;;;5051804;28;20519;-52
2023/09/14 07:54:39;;;;;;;43.20;41.40;;;23.30;91.00;;;;;;5051627;28;20491;-55
2023/09/14 07:57:05;;;;;;;43.40;41.60;;;23.30;91.10;;;;;;5051738;28;20952;-52
2023/09/14 07:59:34;;;;;;;44.70;42.90;;;23.30;91.10;;;;;;5051585;28;20473;-55
2023/09/14 08:02:01;;;;;;;44.17;42.33;;;23.20;91.20;;;;;;5051627;28;20561;-54
2023/09/14 08:04:28;;;;;;;45.17;43.37;;;23.20;91.20;;;;;;5051340;28;20487;-53
2023/09/14 08:06:54;;;;;;;44.37;42.57;;;23.20;91.20;;;;;;5051619;28;20444;-57
2023/09/14 08:09:22;;;;;;;46.00;43.93;;;23.20;91.20;;;;;;5051302;28;20967;-57
2023/09/14 08:11:49;;;;;;;45.47;43.57;;;23.20;91.30;;;;;;5051432;28;20510;-56
2023/09/14 08:14:16;;;;;;;45.83;43.37;;;23.20;91.30;;;;;;5051213;28;20898;-57
2023/09/14 08:16:44;;;;;;;45.90;44.07;;;23.20;91.40;;;;;;5051137;28;20499;-53
2023/09/14 08:19:11;;;;;;;45.13;43.10;;;23.20;91.50;;;;;;5051409;28;20479;-55
2023/09/14 08:21:38;;;;;;;47.20;45.13;;;23.20;91.50;;;;;;5051265;28;20545;-52
2023/09/14 08:24:06;;;;;;;42.90;41.10;;;23.20;91.60;;;;;;5075458;22;20495;-56
2023/09/14 08:26:33;;;;;;;45.07;43.00;;;23.20;91.50;;;;;;5051377;28;20478;-55
2023/09/14 08:28:59;;;;;;;44.13;42.27;;;23.20;91.60;;;;;;5051380;28;20448;-54
2023/09/14 08:31:27;;;;;;;43.37;41.47;;;23.20;91.70;;;;;;5051140;28;20848;-54
2023/09/14 08:33:55;;;;;;;45.93;43.73;;;23.20;91.70;;;;;;5046206;28;20464;-54
2023/09/14 08:36:22;;;;;;;46.40;44.10;;;23.20;91.70;;;;;;5031248;28;20469;-57
2023/09/14 08:38:49;;;;;;;48.40;46.30;;;23.20;91.70;;;;;;5031204;28;20437;-53
2023/09/14 08:41:27;;;;;;;47.00;44.80;;;23.20;91.80;;;;;;5031269;28;20501;-56
2023/09/14 08:43:55;;;;;;;46.33;44.33;;;23.20;91.80;;;;;;5024071;28;20469;-54
2023/09/14 08:46:23;;;;;;;47.77;45.77;;;23.20;91.90;;;;;;5031009;28;20472;-54
2023/09/14 08:48:51;;;;;;;48.20;46.00;;;23.20;91.80;;;;;;5031276;28;20476;-53
2023/09/14 08:51:21;;;;;;;48.00;46.00;;;23.20;92.00;;;;;;5031263;28;20491;-57
2023/09/14 08:53:50;;;;;;;50.57;48.37;;;23.20;92.00;;;;;;5024131;28;20461;-57
2023/09/14 08:56:17;;;;;;;52.40;50.10;;;23.20;92.00;;;;;;5035356;28;20861;-56
2023/09/14 08:58:45;;;;;;;50.80;48.40;;;23.20;92.20;;;;;;5035108;28;20441;-54
2023/09/14 09:01:17;;;;;;;53.80;51.50;;;23.20;92.20;;;;;;5035058;28;20508;-57
2023/09/14 09:03:44;;;;;;;53.73;51.20;;;23.20;92.20;;;;;;5034727;28;20544;-58
2023/09/14 09:06:11;;;;;;;53.27;50.87;;;23.20;92.30;;;;;;5035093;28;20477;-57
2023/09/14 09:08:40;;;;;;;54.20;51.70;;;23.20;92.30;;;;;;5035003;28;20457;-55
2023/09/14 09:11:07;;;;;;;52.87;50.37;;;23.20;92.30;;;;;;5034954;28;20437;-55
2023/09/14 09:13:34;;;;;;;56.50;53.90;;;23.20;92.50;;;;;;5034513;28;20963;-54
2023/09/14 09:16:02;;;;;;;57.70;55.00;;;23.20;92.40;;;;;;5034899;28;20839;-54
2023/09/14 09:18:30;;;;;;;55.20;52.60;;;23.20;92.40;;;;;;5034831;28;20468;-57
2023/09/14 09:20:57;;;;;;;52.27;49.67;;;23.20;92.50;;;;;;5034758;28;20481;-56
2023/09/14 09:23:26;;;;;;;52.27;49.40;;;23.20;92.50;;;;;;5034260;28;20437;-55
2023/09/14 09:25:55;;;;;;;52.60;50.00;;;23.20;92.50;;;;;;5034766;28;20942;-59
2023/09/14 09:28:29;;;;;;;51.67;49.17;;;23.20;92.60;;;;;;5034627;28;20678;-57
2023/09/14 09:30:56;;;;;;;54.27;51.47;;;23.20;92.60;;;;;;5034600;28;20432;-55
2023/09/14 09:33:34;;;;;;;50.20;47.67;;;23.20;92.60;;;;;;5034173;28;20990;-56
2023/09/14 09:36:01;;;;;;;54.80;52.03;;;23.20;92.60;;;;;;5034568;28;20469;-56
2023/09/14 09:38:36;;;;;;;51.50;48.63;;;23.20;92.60;;;;;;5034510;28;20443;-49
2023/09/14 09:41:10;;;;;;;52.03;49.47;;;23.20;92.60;;;;;;5034326;28;20479;-51
2023/09/14 09:43:37;;;;;;;52.40;49.70;;;23.20;92.80;;;;;;5033995;28;20447;-49
2023/09/14 09:46:04;;;;;;;58.20;55.30;;;23.20;92.90;;;;;;5034469;28;20853;-49
2023/09/14 09:48:32;;;;;;;52.80;50.23;;;23.20;92.90;;;;;;5034405;28;20872;-48
2023/09/14 09:50:59;;;;;;;51.03;48.43;;;23.20;92.80;;;;;;5034149;28;20461;-50
2023/09/14 09:53:26;;;;;;;52.93;50.20;;;23.20;92.90;;;;;;5033691;28;20452;-48
2023/09/14 09:55:53;;;;;;;53.60;50.93;;;23.20;92.80;;;;;;5034181;28;20440;-49
2023/09/14 09:58:24;;;;;;;54.33;51.57;;;23.20;92.80;;;;;;5034152;28;20469;-49
2023/09/14 10:00:57;;;;;;;53.70;51.00;;;23.20;92.80;;;;;;5026384;28;20444;-49
2023/09/14 10:03:25;;;;;;;50.60;47.80;;;23.20;92.90;;;;;;5033730;28;20476;-51
2023/09/14 10:05:52;;;;;;;50.00;47.50;;;23.20;93.00;;;;;;5034000;28;20789;-49
2023/09/14 10:08:20;;;;;;;49.30;46.70;;;23.20;93.00;;;;;;5034017;28;20872;-50
2023/09/14 10:10:51;;;;;;;49.47;46.87;;;23.20;92.90;;;;;;5033805;28;20441;-53
2023/09/14 10:13:21;;;;;;;51.63;49.00;;;23.20;92.90;;;;;;5033640;28;20933;-51
2023/09/14 10:15:50;;;;;;;52.40;49.40;;;23.20;92.90;;;;;;5025773;28;20442;-49
2023/09/14 10:18:17;;;;;;;54.43;51.70;;;23.20;93.00;;;;;;5033967;28;20445;-58
2023/09/14 10:20:45;;;;;;;53.43;50.73;;;23.20;93.00;;;;;;5033638;28;20900;-57
2023/09/14 10:23:14;;;;;;;52.50;50.07;;;23.20;93.10;;;;;;5033574;28;20445;-56
2023/09/14 10:25:43;;;;;;;52.70;50.10;;;23.20;93.00;;;;;;5033375;28;20530;-56
2023/09/14 10:28:11;;;;;;;54.73;51.93;;;23.20;92.90;;;;;;5033391;28;20476;-55
2023/09/14 10:30:42;;;;;;;51.13;48.53;;;23.20;92.90;;;;;;5033462;28;20481;-58
2023/09/14 10:33:09;;;;;;;50.43;47.90;;;23.20;92.90;;;;;;5033637;28;20434;-54
2023/09/14 10:35:39;;;;;;;54.27;51.57;;;23.20;92.90;;;;;;5033340;28;20888;-54
2023/09/14 10:38:07;;;;;;;51.77;49.07;;;23.20;92.80;;;;;;5033293;28;20441;-54
2023/09/14 10:40:36;;;;;;;54.23;51.30;;;23.20;92.90;;;;;;5033161;28;20880;-54
2023/09/14 10:43:03;;;;;;;53.43;50.63;;;23.20;92.90;;;;;;5033019;28;20914;-54
2023/09/14 10:45:34;;;;;;;53.87;51.20;;;23.20;93.20;;;;;;5033141;28;21043;-56
2023/09/14 10:48:06;;;;;;;54.70;51.90;;;23.20;92.90;;;;;;5033309;28;20469;-55
2023/09/14 10:50:34;;;;;;;52.50;49.90;;;23.20;93.20;;;;;;5033006;28;20484;-57
2023/09/14 10:53:02;;;;;;;54.17;51.50;;;23.30;92.90;;;;;;5033016;28;20473;-59
2023/09/14 10:55:31;;;;;;;52.67;50.17;;;23.30;92.90;;;;;;5032805;28;21026;-49
2023/09/14 10:57:58;;;;;;;53.83;51.13;;;23.30;92.90;;;;;;5033102;28;20499;-52
2023/09/14 11:00:43;;;;;;;50.07;47.47;;;23.30;92.80;;;;;;5032882;28;20868;-58
2023/09/14 11:03:13;;;;;;;51.10;48.60;;;23.20;92.80;;;;;;5032657;28;20513;-59
2023/09/14 11:05:41;;;;;;;52.23;49.47;;;23.30;92.80;;;;;;5032796;28;20473;-59
2023/09/14 11:08:09;;;;;;;52.70;50.10;;;23.30;92.80;;;;;;5032753;28;20480;-59
2023/09/14 11:10:37;;;;;;;50.70;48.10;;;23.30;92.70;;;;;;5032689;28;20472;-59
2023/09/14 11:13:30;;;;;;;51.50;48.90;;;23.30;92.60;;;;;;5032498;28;20495;-59
2023/09/14 11:16:12;;;;;;;51.60;49.00;;;23.30;92.50;;;;;;5025207;28;20859;-59
2023/09/14 11:18:56;;;;;;;51.73;49.23;;;23.30;92.50;;;;;;5032778;28;20452;-57
2023/09/14 11:21:44;;;;;;;51.47;48.77;;;23.30;92.50;;;;;;5032579;28;20437;-58
2023/09/14 11:24:12;;;;;;;52.50;49.90;;;23.30;92.50;;;;;;5026838;28;20531;-58
2023/09/14 11:26:45;;;;;;;51.00;48.37;;;23.30;92.50;;;;;;5032394;28;20449;-58
2023/09/14 11:29:13;;;;;;;51.20;48.70;;;23.30;92.30;;;;;;5032513;28;20893;-55
2023/09/14 11:31:42;;;;;;;50.70;48.10;;;23.30;92.30;;;;;;5032406;28;20469;-51
2023/09/14 11:34:14;;;;;;;54.37;51.80;;;23.30;92.20;;;;;;5032230;28;20486;-51
2023/09/14 11:36:44;;;;;;;51.97;49.30;;;23.30;92.60;;;;;;5032170;28;20507;-50
2023/09/14 11:39:12;;;;;;;52.60;50.10;;;23.30;92.20;;;;;;5032220;28;21030;-50
2023/09/14 11:41:57;;;;;;;48.20;45.73;;;23.30;92.10;;;;;;5031861;28;20503;-49
2023/09/14 11:44:27;;;;;;;50.73;48.33;;;23.40;92.00;;;;;;5031925;28;20856;-50
2023/09/14 11:46:56;;;;;;;48.20;45.70;;;23.40;91.90;;;;;;5024371;28;20524;-49
2023/09/14 11:49:31;;;;;;;50.73;48.43;;;23.40;91.90;;;;;;5032106;28;20444;-49
2023/09/14 11:51:59;;;;;;;49.03;46.73;;;23.40;91.80;;;;;;5024830;28;20441;-48
2023/09/14 11:54:30;;;;;;;50.47;48.17;;;23.30;91.70;;;;;;5031699;28;20518;-49
2023/09/14 11:57:01;;;;;;;47.50;45.33;;;23.40;91.80;;;;;;5024604;28;20920;-51
2023/09/14 11:59:29;;;;;;;45.40;43.10;;;23.40;91.70;;;;;;5031918;28;20437;-49
2023/09/14 12:01:56;;;;;;;44.40;42.30;;;23.40;91.70;;;;;;5031687;28;20477;-49
2023/09/14 12:04:26;;;;;;;49.40;47.10;;;23.40;91.50;;;;;;5031561;28;20480;-51
2023/09/14 12:06:52;;;;;;;48.37;46.07;;;23.40;91.70;;;;;;5031729;28;20480;-49
2023/09/14 12:09:34;;;;;;;46.97;44.77;;;23.40;91.30;;;;;;5031728;28;20444;-49
2023/09/14 12:12:00;;;;;;;48.70;46.40;;;23.40;91.40;;;;;;5024722;28;20473;-49
2023/09/14 12:14:34;;;;;;;45.83;43.57;;;23.50;91.40;;;;;;5031144;28;20492;-52
2023/09/14 12:17:01;;;;;;;47.60;45.40;;;23.50;91.40;;;;;;5031633;28;20484;-52
2023/09/14 12:19:30;;;;;;;50.33;48.00;;;23.50;91.40;;;;;;5031477;28;20998;-54
2023/09/14 12:21:57;;;;;;;48.13;45.83;;;23.50;91.30;;;;;;5031468;28;20504;-52
2023/09/14 12:24:24;;;;;;;48.10;45.80;;;23.50;91.40;;;;;;5031150;28;20492;-50
2023/09/14 12:26:52;;;;;;;46.63;44.43;;;23.50;91.40;;;;;;5031372;28;20437;-52
2023/09/14 12:29:19;;;;;;;47.80;45.60;;;23.50;91.30;;;;;;5030480;28;21023;-50
2023/09/14 12:31:46;;;;;;;50.00;47.70;;;23.50;91.30;;;;;;5031232;28;20477;-50
2023/09/14 12:34:14;;;;;;;46.63;44.33;;;23.60;91.20;;;;;;5031028;28;20488;-53